EST,Max TemperatureF,Mean TemperatureF,Min TemperatureF,Max Dew PointF,MeanDew PointF,Min DewpointF,Max Humidity, Mean Humidity, Min Humidity, Max Sea Level PressureIn, Mean Sea Level PressureIn, Min Sea Level PressureIn, Max VisibilityMiles, Mean VisibilityMiles, Min VisibilityMiles, Max Wind SpeedMPH, Mean Wind SpeedMPH, Max Gust SpeedMPH,PrecipitationIn, CloudCover, Events, WindDirDegrees
2013-1-1,24,22,19,16,13,11,77,68,59,30.16,30.07,30.03,10,7,2,13,7,20,T,8,Snow,261
2013-1-2,25,23,20,20,17,12,81,74,67,30.13,30.08,30.03,10,8,5,8,4,14,T,8,Snow,217
2013-1-3,30,28,25,23,20,19,81,72,63,30.08,30.02,29.96,10,8,5,17,8,25,T,8,Snow,232
2013-1-4,28,27,24,23,20,18,88,75,69,30.11,29.97,29.91,10,10,7,21,11,29,0.00,4,,236
2013-1-5,37,28,18,32,24,15,96,83,69,30.19,30.05,29.86,10,9,5,12,4,18,T,6,,188
2013-1-6,35,32,28,31,25,18,89,75,61,30.26,29.98,29.81,10,8,2,18,7,24,T,8,Snow,300
2013-1-7,41,33,25,28,22,17,75,61,46,30.25,30.09,29.94,10,10,9,20,8,29,0.00,5,,203
2013-1-8,42,37,31,30,28,24,82,70,57,30.14,30.06,29.98,10,8,6,10,4,17,0.00,3,,195
2013-1-9,41,35,28,31,27,24,75,65,54,30.41,30.03,29.80,10,10,6,33,12,40,0.00,5,,237
2013-1-10,44,34,24,26,24,22,88,66,43,30.53,30.39,30.13,10,10,10,13,3,21,T,5,,150
2013-1-11,49,43,36,45,38,31,93,88,82,30.03,29.76,29.65,10,7,2,12,5,18,0.22,8,Rain,177
2013-1-12,55,45,34,45,37,27,86,65,44,29.94,29.74,29.61,10,10,5,26,10,39,0.04,5,Rain,218
2013-1-13,33,29,24,30,26,17,92,80,68,30.02,29.91,29.83,10,8,2,18,6,24,0.10,8,Rain-Snow,259
2013-1-14,25,23,20,16,14,11,84,70,55,30.38,30.27,30.06,10,6,2,17,7,22,T,7,Snow,242
2013-1-15,28,20,12,18,14,8,88,73,57,30.39,30.29,30.08,10,10,9,21,6,28,T,4,Snow,213
2013-1-16,31,27,22,27,23,15,92,78,63,30.02,29.80,29.64,10,5,1,18,8,29,0.06,7,Snow,250
2013-1-17,28,21,14,16,10,3,80,67,54,30.35,30.21,30.02,10,5,1,23,10,29,0.01,8,Snow,326
2013-1-18,40,25,10,31,16,1,83,72,61,30.38,30.08,29.75,10,8,2,16,6,26,0.01,7,Snow,201
2013-1-19,41,34,27,36,31,22,92,73,54,29.81,29.64,29.45,10,8,0,32,9,44,0.08,8,Fog-Rain-Snow,253
2013-1-20,27,20,13,21,9,5,84,73,61,30.17,29.95,29.54,9,3,0,36,13,46,0.02,8,Fog-Snow,282
2013-1-21,13,7,0,9,0,-8,84,76,67,30.14,30.02,29.95,10,3,0,22,12,26,T,8,Snow,273
2013-1-22,7,4,0,1,-4,-8,86,76,66,30.27,30.18,30.08,9,3,1,18,10,23,T,8,Snow,264
2013-1-23,15,11,6,10,6,1,80,72,64,30.26,30.12,30.02,9,3,1,16,7,21,0.01,8,Snow,251
2013-1-24,12,8,3,5,2,-2,86,74,61,30.66,30.49,30.19,10,6,0,16,5,22,0.01,6,Snow,89
2013-1-25,20,15,10,16,11,0,84,71,58,30.44,30.10,29.93,10,3,1,10,4,18,0.02,8,Snow,165
2013-1-26,29,23,17,20,16,13,84,76,68,30.40,30.27,30.06,10,9,5,10,3,14,T,7,Snow,271
2013-1-27,32,26,20,25,22,16,92,73,54,30.40,30.21,30.00,10,5,0,12,5,20,0.39,8,Fog-Snow,152
2013-1-28,35,32,28,34,30,25,100,89,78,30.01,29.88,29.79,10,5,0,9,3,15,0.09,8,Fog-Rain,320
2013-1-29,51,42,32,50,38,30,100,91,82,29.95,29.62,29.45,10,6,0,14,5,18,0.69,8,Fog-Rain,136
2013-1-30,37,30,23,36,28,18,96,85,74,29.46,29.26,29.12,10,3,0,25,11,33,0.45,8,Fog-Rain-Snow,345
2013-1-31,24,20,16,19,13,8,88,78,67,29.88,29.52,29.25,10,3,0,23,15,28,0.02,8,Fog-Snow,289